Time;durP1;ratioP1;P1;durP2;ratioP2;P2;SDS_P1;SDS_P2;PMS_P1;PMS_P2;Temp;Humidity;BMP_temperature;BMP_pressure;BME280_temperature;BME280_humidity;BME280_pressure;Samples;Min_cycle;Max_cycle;Signal;HPM_P1;HPM_P2
2021/11/28 00:02:26;;;;;;;17.67;10.03;;;;;;;8.49;100.00;98980.03;1770616;81;21018;-71
2021/11/28 00:04:53;;;;;;;18.60;9.83;;;;;;;8.50;100.00;98975.50;1771022;81;21499;-70
2021/11/28 00:10:02;;;;;;;17.70;10.48;;;;;;;8.49;100.00;98974.64;1771397;81;21042;-71
2021/11/28 00:12:38;;;;;;;17.37;9.67;;;;;;;8.52;100.00;98972.11;1767832;81;21460;-69
2021/11/28 00:14:56;;;;;;;17.67;9.80;;;;;;;8.53;100.00;98965.69;1767670;81;21499;-71
2021/11/28 00:17:23;;;;;;;20.07;11.20;;;;;;;8.54;100.00;98982.19;1770906;81;21014;-71
2021/11/28 00:19:50;;;;;;;20.97;11.03;;;;;;;8.54;100.00;98984.36;1775957;80;20999;-70
2021/11/28 00:22:18;;;;;;;21.30;10.47;;;;;;;8.54;100.00;98974.11;1782129;80;20999;-70
2021/11/28 00:24:44;;;;;;;18.53;9.70;;;;;;;8.55;100.00;98975.76;1793746;80;21042;-71
2021/11/28 00:27:11;;;;;;;20.20;10.47;;;;;;;8.55;100.00;98974.41;1796011;79;21459;-70
2021/11/28 00:29:38;;;;;;;20.57;9.53;;;;;;;8.54;100.00;98969.55;1796094;80;20990;-70
2021/11/28 00:32:05;;;;;;;19.93;11.03;;;;;;;8.54;100.00;98968.72;1796110;80;21535;-70
2021/11/28 00:34:32;;;;;;;21.57;11.53;;;;;;;8.53;100.00;98971.07;1764667;81;21066;-73
2021/11/28 00:36:59;;;;;;;22.57;12.47;;;;;;;8.53;100.00;98971.07;1764505;81;21034;-70
2021/11/28 00:39:26;;;;;;;25.10;15.10;;;;;;;8.51;100.00;98969.08;1764887;81;21031;-71
2021/11/28 00:41:53;;;;;;;28.30;17.53;;;;;;;8.51;100.00;98965.03;1764407;80;20979;-71
2021/11/28 00:44:19;;;;;;;27.23;15.43;;;;;;;8.50;100.00;98955.30;1764294;81;21006;-70
2021/11/28 00:46:46;;;;;;;24.87;13.27;;;;;;;8.48;100.00;98954.62;1764662;81;21042;-71
2021/11/28 00:49:15;;;;;;;25.20;15.07;;;;;;;8.45;100.00;98947.75;1764757;81;21058;-71
2021/11/28 00:51:52;;;;;;;23.57;12.93;;;;;;;8.43;100.00;98951.15;1764419;81;21504;-69
2021/11/28 00:54:17;;;;;;;24.20;11.77;;;;;;;8.40;100.00;98950.64;1764831;81;21472;-71
2021/11/28 00:56:45;;;;;;;19.80;10.87;;;;;;;8.39;100.00;98946.27;1764658;81;21077;-71
2021/11/28 00:59:15;;;;;;;21.60;10.83;;;;;;;8.37;100.00;98950.48;1764800;81;21030;-70
2021/11/28 01:01:43;;;;;;;22.40;10.90;;;;;;;8.35;100.00;98951.19;1764347;81;21014;-71
2021/11/28 01:04:10;;;;;;;21.30;11.33;;;;;;;8.34;100.00;98949.02;1764606;81;20990;-70
2021/11/28 01:06:38;;;;;;;22.70;12.37;;;;;;;8.34;100.00;98954.92;1764473;81;21096;-70
2021/11/28 01:09:07;;;;;;;23.00;13.10;;;;;;;8.32;100.00;98953.75;1764618;81;21109;-70
2021/11/28 01:11:36;;;;;;;31.83;17.20;;;;;;;8.31;100.00;98952.58;1747747;81;20999;-71
2021/11/28 01:14:04;;;;;;;30.93;19.80;;;;;;;8.30;100.00;98957.63;1764630;81;21038;-71
2021/11/28 01:16:30;;;;;;;30.90;20.80;;;;;;;8.28;100.00;98952.42;1764604;81;21006;-71
2021/11/28 01:18:57;;;;;;;26.97;16.67;;;;;;;8.26;100.00;98961.20;1766499;80;21026;-71
2021/11/28 01:21:25;;;;;;;24.83;13.63;;;;;;;8.24;100.00;98951.13;1795593;78;21034;-70
2021/11/28 01:23:54;;;;;;;24.30;13.00;;;;;;;8.23;100.00;98952.13;1790788;78;21050;-71
2021/11/28 01:26:21;;;;;;;19.37;10.90;;;;;;;8.22;100.00;98953.16;1782189;80;21034;-70
2021/11/28 01:28:51;;;;;;;17.97;10.27;;;;;;;8.23;100.00;98959.38;1782269;80;21043;-70
2021/11/28 01:31:18;;;;;;;21.73;10.20;;;;;;;8.24;100.00;98959.72;1782211;80;20964;-72
2021/11/28 01:33:45;;;;;;;19.93;10.17;;;;;;;8.22;100.00;98961.77;1774655;80;20998;-70
2021/11/28 01:36:11;;;;;;;20.23;10.53;;;;;;;8.20;100.00;98963.78;1771060;81;21488;-70
2021/11/28 01:38:38;;;;;;;19.30;10.17;;;;;;;8.16;100.00;98958.78;1770990;81;21018;-70
2021/11/28 01:41:06;;;;;;;19.83;10.70;;;;;;;8.14;100.00;98964.86;1770743;80;21058;-70
2021/11/28 01:43:33;;;;;;;23.80;10.97;;;;;;;8.13;100.00;98966.38;1771093;80;21050;-71
2021/11/28 01:46:00;;;;;;;21.50;11.20;;;;;;;8.10;100.00;98961.35;1771075;81;21547;-70
2021/11/28 01:48:26;;;;;;;19.43;11.57;;;;;;;8.09;100.00;98961.02;1770897;80;21014;-71
2021/11/28 01:50:54;;;;;;;20.23;11.17;;;;;;;8.09;100.00;98955.63;1770919;81;21038;-71
2021/11/28 01:53:27;;;;;;;20.97;11.43;;;;;;;8.08;100.00;98958.01;1770958;81;20982;-70
2021/11/28 01:55:54;;;;;;;23.55;12.10;;;;;;;8.06;100.00;98954.66;1771202;80;20994;-70
2021/11/28 01:58:26;;;;;;;21.57;12.30;;;;;;;8.05;100.00;98952.98;1767650;81;21065;-70
2021/11/28 02:00:57;;;;;;;21.43;11.93;;;;;;;8.05;100.00;98955.16;1771028;81;20987;-69
2021/11/28 02:03:26;;;;;;;24.37;12.90;;;;;;;8.07;100.00;98969.78;1770922;81;21488;-71
2021/11/28 02:05:58;;;;;;;22.30;12.80;;;;;;;8.07;100.00;98979.20;1771189;81;21055;-70
2021/11/28 02:08:25;;;;;;;22.63;12.83;;;;;;;8.08;100.00;98983.06;1771322;81;21025;-70
2021/11/28 02:10:52;;;;;;;24.00;13.60;;;;;;;8.09;100.00;98995.53;1770879;81;21483;-70
2021/11/28 02:13:22;;;;;;;21.47;12.97;;;;;;;8.10;100.00;99005.78;1771007;80;21029;-70
2021/11/28 02:15:50;;;;;;;22.67;13.20;;;;;;;8.09;100.00;99014.38;1771129;81;21054;-71
2021/11/28 02:18:19;;;;;;;24.57;13.27;;;;;;;8.07;100.00;99014.20;1770847;81;21031;-70
2021/11/28 02:20:50;;;;;;;22.53;12.70;;;;;;;8.06;100.00;99017.42;1780200;80;20967;-70
2021/11/28 02:23:18;;;;;;;21.27;12.53;;;;;;;8.06;100.00;99009.34;1782203;80;21022;-70
2021/11/28 02:25:45;;;;;;;23.57;13.47;;;;;;;8.06;100.00;98997.22;1781897;80;21848;-71
2021/11/28 02:28:14;;;;;;;22.23;12.87;;;;;;;8.06;100.00;99012.55;1782390;80;21015;-70
2021/11/28 02:30:42;;;;;;;20.53;12.10;;;;;;;8.07;100.00;99019.59;1782146;80;20995;-71
2021/11/28 02:33:09;;;;;;;22.23;12.80;;;;;;;8.07;100.00;99016.90;1782326;80;20991;-70
2021/11/28 02:35:36;;;;;;;21.83;12.97;;;;;;;8.08;100.00;99014.03;1782254;80;21022;-71
2021/11/28 02:38:04;;;;;;;23.87;12.57;;;;;;;8.08;100.00;99011.86;1782312;80;20980;-71
2021/11/28 02:40:32;;;;;;;21.57;12.10;;;;;;;8.08;100.00;99022.11;1782253;80;21023;-70
2021/11/28 02:42:59;;;;;;;22.23;12.20;;;;;;;8.05;100.00;99015.73;1782145;80;21026;-70
2021/11/28 02:45:27;;;;;;;20.53;11.43;;;;;;;8.07;100.00;99019.59;1782058;80;20999;-70
2021/11/28 02:47:56;;;;;;;21.37;12.50;;;;;;;8.04;100.00;99020.80;1782407;80;21015;-71
2021/11/28 02:50:23;;;;;;;22.00;12.30;;;;;;;8.02;100.00;99019.29;1782162;80;21062;-70
2021/11/28 02:52:57;;;;;;;21.70;12.87;;;;;;;8.00;100.00;99015.42;1781995;80;21054;-69
2021/11/28 02:55:28;;;;;;;24.07;12.90;;;;;;;8.02;100.00;99016.59;1780837;80;21010;-70
2021/11/28 02:57:57;;;;;;;22.03;12.40;;;;;;;8.03;100.00;99018.28;1730211;83;21085;-71
2021/11/28 03:00:27;;;;;;;23.07;12.50;;;;;;;8.03;100.00;99015.08;1730697;83;21017;-70
2021/11/28 03:02:54;;;;;;;22.97;13.17;;;;;;;8.02;100.00;99016.59;1730616;83;20969;-70
2021/11/28 03:05:23;;;;;;;21.87;12.53;;;;;;;8.02;100.00;99020.16;1714846;84;21041;-70
2021/11/28 03:07:50;;;;;;;23.37;12.50;;;;;;;8.03;100.00;99022.33;1730383;83;21037;-70
2021/11/28 03:10:40;;;;;;;23.97;12.40;;;;;;;8.03;100.00;99020.46;1715256;83;21062;-70
2021/11/28 03:13:22;;;;;;;22.63;12.23;;;;;;;8.01;100.00;99032.44;1730174;83;21034;-70
2021/11/28 03:15:51;;;;;;;21.83;12.03;;;;;;;7.97;100.00;99036.83;1693214;84;21118;-70
2021/11/28 03:18:22;;;;;;;21.87;12.30;;;;;;;7.96;100.00;99034.31;1730536;82;21087;-69
2021/11/28 03:20:52;;;;;;;19.87;12.23;;;;;;;7.95;100.00;99032.14;1730179;83;21025;-70
2021/11/28 03:23:22;;;;;;;21.53;12.23;;;;;;;7.96;100.00;99027.58;1730550;82;21054;-69
2021/11/28 03:25:49;;;;;;;22.63;12.40;;;;;;;7.95;100.00;99029.44;1730133;81;21163;-69
2021/11/28 03:28:19;;;;;;;19.27;11.40;;;;;;;7.95;100.00;99034.83;1730221;83;21068;-70
2021/11/28 03:30:47;;;;;;;23.20;12.73;;;;;;;7.96;100.00;99039.69;1730464;83;20998;-70
2021/11/28 03:33:34;;;;;;;19.87;11.47;;;;;;;7.94;100.00;99045.25;1655603;86;21508;-70
2021/11/28 03:36:19;;;;;;;19.63;11.30;;;;;;;7.93;100.00;99048.98;1652097;87;21106;-71
2021/11/28 03:38:47;;;;;;;22.00;11.90;;;;;;;7.93;100.00;99045.42;1655388;87;21086;-70
2021/11/28 03:41:14;;;;;;;21.50;12.10;;;;;;;7.91;100.00;99042.91;1655141;87;21011;-71
2021/11/28 03:43:42;;;;;;;21.57;12.10;;;;;;;7.90;100.00;99045.80;1655472;87;21540;-70
2021/11/28 03:46:11;;;;;;;21.47;12.03;;;;;;;7.88;100.00;99043.29;1633283;87;21111;-71
2021/11/28 03:48:38;;;;;;;21.90;12.40;;;;;;;7.87;100.00;99049.67;1655392;87;21047;-70
2021/11/28 03:51:06;;;;;;;24.17;12.27;;;;;;;7.85;100.00;99058.44;1655231;87;21039;-71
2021/11/28 03:53:34;;;;;;;19.87;11.40;;;;;;;7.84;100.00;99058.09;1657232;84;21015;-71
2021/11/28 03:56:05;;;;;;;21.07;11.40;;;;;;;7.85;100.00;99053.58;1707943;84;21078;-71
2021/11/28 03:58:30;;;;;;;20.80;12.53;;;;;;;7.85;100.00;99058.95;1686699;84;21059;-71
2021/11/28 04:00:58;;;;;;;23.60;11.63;;;;;;;7.84;100.00;99069.38;1708141;84;21480;-71
2021/11/28 04:03:27;;;;;;;21.00;11.13;;;;;;;7.83;100.00;99067.72;1708167;84;21035;-71
2021/11/28 04:05:53;;;;;;;19.90;11.30;;;;;;;7.83;100.00;99062.34;1754986;80;21007;-71
2021/11/28 04:08:21;;;;;;;22.23;10.67;;;;;;;7.82;100.00;99061.48;1782196;79;20988;-70
2021/11/28 04:10:50;;;;;;;19.63;11.23;;;;;;;7.80;100.00;99070.23;1781938;80;21027;-69
2021/11/28 04:13:17;;;;;;;20.00;11.00;;;;;;;7.79;100.00;99073.45;1771454;80;21035;-71
2021/11/28 04:15:44;;;;;;;19.70;10.63;;;;;;;7.78;100.00;99079.00;1782121;80;20995;-71
2021/11/28 04:18:13;;;;;;;19.40;10.63;;;;;;;7.77;100.00;99075.97;1782110;79;21011;-71
2021/11/28 04:20:42;;;;;;;21.90;12.07;;;;;;;7.75;100.00;99077.48;1782095;80;21516;-72
2021/11/28 04:23:10;;;;;;;22.37;11.43;;;;;;;7.75;100.00;99092.80;1782094;79;21101;-71
2021/11/28 04:25:37;;;;;;;20.20;10.57;;;;;;;7.74;100.00;99087.94;1792730;80;21515;-71
2021/11/28 04:28:04;;;;;;;18.23;10.00;;;;;;;7.74;100.00;99079.03;1796234;80;20970;-71
2021/11/28 04:30:31;;;;;;;18.50;10.40;;;;;;;7.72;100.00;99080.55;1795901;80;21457;-69
2021/11/28 04:33:00;;;;;;;20.10;10.90;;;;;;;7.71;100.00;99090.14;1796127;80;21502;-70
2021/11/28 04:35:27;;;;;;;18.00;10.07;;;;;;;7.68;100.00;99090.48;1796170;80;21466;-69
2021/11/28 04:37:54;;;;;;;19.60;10.20;;;;;;;7.66;100.00;99090.66;1795799;79;21041;-71
2021/11/28 04:40:21;;;;;;;20.07;10.00;;;;;;;7.65;100.00;99086.80;1796368;80;21084;-71
2021/11/28 04:42:48;;;;;;;19.20;10.17;;;;;;;7.64;100.00;99090.00;1796143;78;21028;-70
2021/11/28 04:45:16;;;;;;;19.27;9.90;;;;;;;7.62;100.00;99090.69;1795962;80;21011;-70
2021/11/28 04:47:43;;;;;;;18.73;9.77;;;;;;;7.62;100.00;99094.72;1796015;78;21504;-70
2021/11/28 04:50:12;;;;;;;19.73;9.87;;;;;;;7.62;100.00;99100.10;1795955;79;20994;-70
2021/11/28 04:52:39;;;;;;;18.47;10.10;;;;;;;7.61;100.00;99088.99;1795981;79;20991;-71
2021/11/28 04:55:09;;;;;;;17.57;9.47;;;;;;;7.62;100.00;99097.93;1795950;80;21031;-70
2021/11/28 04:57:36;;;;;;;20.30;10.70;;;;;;;7.60;100.00;99088.17;1796070;80;21021;-71
2021/11/28 05:00:17;;;;;;;21.83;11.73;;;;;;;7.60;100.00;99093.55;1795976;79;21034;-70
2021/11/28 05:02:46;;;;;;;19.23;10.57;;;;;;;7.59;100.00;99097.23;1681904;85;21043;-71
2021/11/28 05:05:13;;;;;;;18.67;10.57;;;;;;;7.60;100.00;99091.38;1682334;85;21106;-70
2021/11/28 05:07:58;;;;;;;18.97;10.23;;;;;;;7.60;100.00;99090.03;1682602;85;21103;-71
2021/11/28 05:10:26;;;;;;;20.43;10.93;;;;;;;7.61;100.00;99095.72;1682634;85;21045;-70
2021/11/28 05:12:54;;;;;;;18.77;10.30;;;;;;;7.60;100.00;99090.86;1682047;85;21083;-70
2021/11/28 05:15:23;;;;;;;19.93;10.17;;;;;;;7.63;100.00;99092.86;1681997;85;20993;-71
2021/11/28 05:18:09;;;;;;;21.53;10.97;;;;;;;7.63;100.00;99100.41;1682420;85;21012;-69
2021/11/28 05:20:36;;;;;;;20.63;11.33;;;;;;;7.62;100.00;99100.10;1681189;85;21548;-70
2021/11/28 05:23:04;;;;;;;18.57;10.97;;;;;;;7.60;100.00;99098.92;1645687;87;21055;-70
2021/11/28 05:25:31;;;;;;;19.30;11.40;;;;;;;7.57;100.00;99103.30;1637112;86;21595;-70
2021/11/28 05:27:59;;;;;;;23.27;12.33;;;;;;;7.57;100.00;99112.72;1635724;88;21097;-70
2021/11/28 05:30:25;;;;;;;22.40;12.40;;;;;;;7.59;100.00;99113.38;1635729;88;21085;-70
2021/11/28 05:33:01;;;;;;;22.47;12.33;;;;;;;7.61;100.00;99109.17;1633259;88;21090;-70
2021/11/28 05:35:39;;;;;;;22.40;13.13;;;;;;;7.62;100.00;99100.62;1651416;87;21149;-70
2021/11/28 05:38:10;;;;;;;22.90;12.30;;;;;;;7.63;100.00;99115.22;1692738;85;21014;-70
2021/11/28 05:40:38;;;;;;;24.03;13.50;;;;;;;7.64;100.00;99124.98;1692335;85;21091;-71
2021/11/28 05:43:05;;;;;;;24.83;13.27;;;;;;;7.64;100.00;99125.49;1692892;85;21512;-70
2021/11/28 05:45:33;;;;;;;22.30;13.57;;;;;;;7.65;100.00;99125.80;1692543;85;21531;-71
2021/11/28 05:48:17;;;;;;;21.87;13.20;;;;;;;7.63;100.00;99131.36;1646638;87;21065;-70
2021/11/28 05:50:45;;;;;;;23.17;13.43;;;;;;;7.63;100.00;99129.18;1594384;90;21481;-71
2021/11/28 05:53:12;;;;;;;21.43;12.53;;;;;;;7.65;100.00;99139.26;1581974;91;21096;-70
2021/11/28 05:55:39;;;;;;;22.33;12.73;;;;;;;7.64;100.00;99136.25;1581961;91;21096;-70
2021/11/28 05:58:08;;;;;;;22.00;12.40;;;;;;;7.64;100.00;99137.08;1580376;89;21559;-69
2021/11/28 06:00:35;;;;;;;24.07;13.13;;;;;;;7.64;100.00;99134.91;1595617;90;21509;-71
2021/11/28 06:03:05;;;;;;;24.07;14.17;;;;;;;7.64;100.00;99133.05;1595259;90;21421;-70
2021/11/28 06:05:42;;;;;;;24.95;14.10;;;;;;;7.65;100.00;99134.73;1595579;89;21087;-71
2021/11/28 06:08:23;;;;;;;27.27;15.17;;;;;;;7.66;100.00;99135.05;1595451;90;21035;-69
2021/11/28 06:10:50;;;;;;;22.10;12.80;;;;;;;7.65;100.00;99136.56;1595097;90;21060;-70
2021/11/28 06:13:18;;;;;;;23.43;12.47;;;;;;;7.64;100.00;99138.43;1592859;89;21584;-71
2021/11/28 06:15:47;;;;;;;21.03;12.20;;;;;;;7.64;100.00;99147.02;1589095;89;21193;-71
2021/11/28 06:18:32;;;;;;;21.17;11.90;;;;;;;7.66;100.00;99140.44;1525221;94;21082;-70
2021/11/28 06:21:04;;;;;;;;;;;;;;;7.68;100.00;99138.92;1540100;93;21529;-70
2021/11/28 06:23:33;;;;;;;24.10;13.13;;;;;;;7.69;100.00;99144.12;1508631;93;20127;-70
2021/11/28 06:26:01;;;;;;;19.20;10.97;;;;;;;7.69;100.00;99145.48;1504827;94;21180;-71
2021/11/28 06:28:28;;;;;;;22.00;12.03;;;;;;;7.70;100.00;99139.58;1547503;91;21035;-70
2021/11/28 06:30:55;;;;;;;19.83;11.50;;;;;;;7.71;100.00;99139.41;1579083;91;21102;-71
2021/11/28 06:33:41;;;;;;;23.17;12.07;;;;;;;7.74;100.00;99142.27;1576592;91;21062;-71
2021/11/28 06:36:19;;;;;;;19.70;11.17;;;;;;;7.76;100.00;99137.55;1565878;92;21566;-69
2021/11/28 06:38:50;;;;;;;23.07;12.93;;;;;;;7.75;100.00;99131.30;1507816;95;21609;-71
2021/11/28 06:41:26;;;;;;;19.67;11.15;;;;;;;7.77;100.00;99129.30;1505318;95;21123;-71
2021/11/28 06:43:54;;;;;;;21.17;11.40;;;;;;;7.77;100.00;99125.75;1507777;95;21140;-70
2021/11/28 06:46:21;;;;;;;20.00;11.43;;;;;;;7.78;100.00;99137.69;1515443;95;21200;-71
2021/11/28 06:48:48;;;;;;;20.93;11.83;;;;;;;7.78;100.00;99140.38;1515271;93;21164;-71
2021/11/28 06:51:34;;;;;;;21.93;11.53;;;;;;;7.78;100.00;99130.96;1515416;95;21075;-70
2021/11/28 06:54:03;;;;;;;22.23;11.93;;;;;;;7.80;100.00;99123.55;1512581;95;21111;-71
2021/11/28 06:56:37;;;;;;;21.30;11.70;;;;;;;7.83;100.00;99118.34;1515243;95;21184;-70
2021/11/28 06:59:08;;;;;;;22.70;12.83;;;;;;;7.84;100.00;99124.55;1492114;95;21111;-71
2021/11/28 07:01:36;;;;;;;22.70;13.37;;;;;;;7.86;100.00;99130.11;1485867;97;21138;-70
2021/11/28 07:04:08;;;;;;;21.70;12.90;;;;;;;7.86;100.00;99122.52;1457192;98;21213;-71
2021/11/28 07:06:48;;;;;;;22.13;12.20;;;;;;;7.86;100.00;99127.41;1450743;99;21094;-70
2021/11/28 07:09:15;;;;;;;21.80;11.63;;;;;;;7.88;100.00;99117.31;1450902;99;21146;-70
2021/11/28 07:11:44;;;;;;;20.57;11.43;;;;;;;7.87;100.00;99112.92;1453936;97;21128;-70
2021/11/28 07:14:11;;;;;;;22.10;12.40;;;;;;;7.84;100.00;99113.27;1495234;96;21555;-70
2021/11/28 07:16:38;;;;;;;23.03;14.17;;;;;;;7.80;100.00;99106.05;1511432;95;21098;-71
2021/11/28 07:19:04;;;;;;;22.90;13.27;;;;;;;7.82;100.00;99103.19;1518520;93;21595;-70
2021/11/28 07:21:50;;;;;;;25.17;14.20;;;;;;;7.83;100.00;99103.53;1515517;94;21059;-70
2021/11/28 07:24:18;;;;;;;25.77;15.53;;;;;;;7.83;100.00;99094.12;1471649;95;21162;-71
2021/11/28 07:26:44;;;;;;;23.83;14.37;;;;;;;7.82;100.00;99100.50;1489637;96;21093;-70
2021/11/28 07:29:12;;;;;;;28.37;17.10;;;;;;;7.85;100.00;99103.36;1489602;96;21158;-71
2021/11/28 07:31:40;;;;;;;26.93;16.60;;;;;;;7.88;100.00;99111.92;1489954;96;21658;-70
2021/11/28 07:34:06;;;;;;;26.83;15.60;;;;;;;7.93;100.00;99110.89;1519179;94;22385;-71
2021/11/28 07:36:54;;;;;;;25.97;15.53;;;;;;;7.98;100.00;99118.42;1519515;94;21090;-71
2021/11/28 07:39:21;;;;;;;26.30;15.47;;;;;;;8.03;100.00;99107.13;1519620;94;21074;-70
2021/11/28 07:41:51;;;;;;;27.20;17.27;;;;;;;8.01;100.00;99096.53;1564001;86;21046;-71
2021/11/28 07:44:37;;;;;;;28.80;17.00;;;;;;;7.96;100.00;99089.49;1756462;82;21037;-71
2021/11/28 07:47:17;;;;;;;26.27;17.03;;;;;;;7.96;100.00;99083.59;1684749;85;21054;-71
2021/11/28 07:49:46;;;;;;;25.97;15.73;;;;;;;7.98;100.00;99080.24;1637785;88;21105;-71
2021/11/28 07:52:20;;;;;;;23.60;15.43;;;;;;;8.03;100.00;99081.03;1637972;87;21049;-72
2021/11/28 07:54:49;;;;;;;23.73;15.27;;;;;;;8.02;100.00;99088.80;1637774;88;21069;-73
2021/11/28 07:57:17;;;;;;;24.40;15.07;;;;;;;8.02;100.00;99085.25;1637683;88;21623;-73
2021/11/28 08:00:07;;;;;;;23.87;15.27;;;;;;;8.03;100.00;99089.62;1616281;87;21089;-72
2021/11/28 08:02:36;;;;;;;25.23;16.33;;;;;;;8.04;100.00;99094.84;1613523;89;21581;-73
2021/11/28 08:05:21;;;;;;;25.70;15.97;;;;;;;8.04;100.00;99089.94;1585965;90;21562;-73
2021/11/28 08:08:07;;;;;;;25.40;16.13;;;;;;;8.05;100.00;99088.42;1586215;90;21068;-74
2021/11/28 08:10:50;;;;;;;;;;;;;;;8.04;100.00;99088.11;1566749;91;21092;-73
2021/11/28 08:13:16;;;;;;;26.90;16.53;;;;;;;8.07;100.00;99088.25;1590835;90;20271;-72
2021/11/28 08:15:44;;;;;;;27.50;17.23;;;;;;;8.07;100.00;99082.86;1563859;92;21580;-72
2021/11/28 08:18:11;;;;;;;25.50;16.27;;;;;;;8.08;100.00;99079.16;1591177;90;21129;-73
2021/11/28 08:20:38;;;;;;;27.57;17.07;;;;;;;8.05;100.00;99083.55;1562899;92;21136;-72
2021/11/28 08:23:05;;;;;;;26.13;17.63;;;;;;;7.99;100.00;99081.90;1572598;90;21044;-73
2021/11/28 08:25:32;;;;;;;30.60;17.90;;;;;;;7.97;100.00;99079.06;1608949;89;21090;-73
2021/11/28 08:28:00;;;;;;;31.33;18.57;;;;;;;7.99;100.00;99080.55;1583171;90;21587;-73
2021/11/28 08:30:28;;;;;;;30.13;19.03;;;;;;;8.03;100.00;99078.86;1606227;88;21071;-73
2021/11/28 08:33:01;;;;;;;30.37;18.98;;;;;;;8.03;100.00;99068.92;1627294;88;21081;-72
2021/11/28 08:35:47;;;;;;;30.60;18.10;;;;;;;8.02;100.00;99072.64;1627772;88;21578;-73
2021/11/28 08:38:14;;;;;;;25.77;16.73;;;;;;;7.99;100.00;99070.30;1627585;88;21041;-72
2021/11/28 08:40:42;;;;;;;31.30;19.33;;;;;;;7.98;100.00;99076.69;1626734;88;21121;-73
2021/11/28 08:43:11;;;;;;;29.33;18.63;;;;;;;7.95;100.00;99071.66;1626606;88;21563;-73
2021/11/28 08:45:39;;;;;;;30.10;19.10;;;;;;;7.95;100.00;99068.96;1626717;88;21104;-73
2021/11/28 08:48:06;;;;;;;27.73;18.10;;;;;;;7.92;100.00;99061.27;1605589;88;21088;-73
2021/11/28 08:50:33;;;;;;;29.17;19.93;;;;;;;7.93;100.00;99063.78;1626953;88;21041;-74
2021/11/28 08:53:00;;;;;;;26.70;17.83;;;;;;;7.96;100.00;99060.71;1626691;88;21104;-72
2021/11/28 08:55:26;;;;;;;24.63;16.23;;;;;;;7.96;100.00;99062.58;1627090;88;21080;-73
2021/11/28 08:57:53;;;;;;;26.30;18.60;;;;;;;7.95;100.00;99058.19;1626855;88;21530;-73
2021/11/28 09:00:20;;;;;;;32.10;22.23;;;;;;;7.94;100.00;99065.95;1626622;88;21085;-74
2021/11/28 09:02:50;;;;;;;35.07;23.17;;;;;;;7.89;100.00;99073.20;1660977;84;21052;-73
2021/11/28 09:05:19;;;;;;;31.83;21.07;;;;;;;7.83;100.00;99073.94;1707846;84;21033;-74
2021/11/28 09:07:47;;;;;;;32.83;21.90;;;;;;;7.80;100.00;99070.23;1708042;84;21546;-73
2021/11/28 09:10:15;;;;;;;30.50;20.27;;;;;;;7.77;100.00;99080.87;1708031;84;21005;-73
2021/11/28 09:12:42;;;;;;;29.00;19.73;;;;;;;7.78;100.00;99077.66;1707794;84;21100;-73
2021/11/28 09:15:09;;;;;;;26.93;18.13;;;;;;;7.73;100.00;99086.25;1708154;84;21048;-73
2021/11/28 09:17:41;;;;;;;26.10;17.27;;;;;;;7.73;100.00;99083.55;1707804;84;21044;-73
2021/11/28 09:20:10;;;;;;;27.83;17.67;;;;;;;7.70;100.00;99075.00;1722887;83;21016;-73
2021/11/28 09:25:07;;;;;;;26.90;16.93;;;;;;;7.73;100.00;99086.77;1734689;83;21086;-73
2021/11/28 09:27:34;;;;;;;27.40;18.40;;;;;;;7.73;100.00;99082.20;1779729;81;21526;-73
2021/11/28 09:30:02;;;;;;;30.43;20.40;;;;;;;7.78;100.00;99089.77;1779706;81;21001;-73
2021/11/28 09:32:30;;;;;;;38.00;25.00;;;;;;;7.82;100.00;99087.05;1779981;80;21034;-73
2021/11/28 09:34:57;;;;;;;42.33;28.80;;;;;;;7.88;100.00;99084.15;1781648;80;21464;-73
2021/11/28 09:37:24;;;;;;;48.37;31.60;;;;;;;7.92;100.00;99086.32;1781461;80;21015;-72
2021/11/28 09:39:51;;;;;;;52.53;33.13;;;;;;;7.99;100.00;99083.25;1781495;80;21062;-72
2021/11/28 09:42:24;;;;;;;51.50;33.63;;;;;;;8.05;100.00;99086.25;1781405;80;20991;-73
2021/11/28 09:44:51;;;;;;;;;;;;;;;8.08;100.00;99085.90;1784379;80;21492;-73
2021/11/28 09:47:17;;;;;;;65.80;36.27;;;;;;;8.12;100.00;99089.38;1781821;80;20107;-72
2021/11/28 09:49:44;;;;;;;64.07;37.43;;;;;;;8.11;100.00;99088.21;1781930;80;21510;-73
2021/11/28 09:52:19;;;;;;;68.33;41.53;;;;;;;8.14;100.00;99085.17;1781492;80;20983;-73
2021/11/28 09:54:46;;;;;;;66.57;41.07;;;;;;;8.16;100.00;99076.40;1781904;80;21505;-72
2021/11/28 09:57:17;;;;;;;65.83;40.47;;;;;;;8.17;100.00;99087.00;1781512;80;21019;-72
2021/11/28 09:59:45;;;;;;;65.03;39.23;;;;;;;8.20;100.00;99085.81;1781608;80;21492;-72
2021/11/28 10:02:22;;;;;;;65.53;40.00;;;;;;;8.22;100.00;99090.51;1781592;80;21058;-73
2021/11/28 10:04:49;;;;;;;69.13;39.97;;;;;;;8.22;100.00;99082.95;1729829;83;21542;-73
2021/11/28 10:07:16;;;;;;;74.30;44.90;;;;;;;8.28;100.00;99077.66;1714518;83;21021;-73
2021/11/28 10:09:43;;;;;;;73.30;45.53;;;;;;;8.32;100.00;99081.69;1729900;83;21578;-72
2021/11/28 10:12:23;;;;;;;67.87;40.13;;;;;;;8.30;100.00;99081.00;1729795;83;20993;-73
2021/11/28 10:14:53;;;;;;;69.37;39.57;;;;;;;8.31;100.00;99089.42;1729895;83;21065;-74
2021/11/28 10:17:24;;;;;;;61.73;37.97;;;;;;;8.31;100.00;99084.56;1714576;83;21010;-73
2021/11/28 10:19:51;;;;;;;64.03;38.33;;;;;;;8.32;100.00;99079.00;1736984;82;21062;-74
2021/11/28 10:22:18;;;;;;;64.17;36.97;;;;;;;8.30;100.00;99067.54;1746320;82;21066;-72
2021/11/28 10:25:04;;;;;;;59.80;37.00;;;;;;;8.30;100.00;99064.84;1746383;82;21011;-74
2021/11/28 10:27:35;;;;;;;59.83;38.63;;;;;;;8.33;100.00;99062.31;1746223;82;21571;-73
2021/11/28 10:30:06;;;;;;;62.97;37.80;;;;;;;8.32;100.00;99066.88;1746313;82;21030;-73
2021/11/28 10:32:32;;;;;;;56.70;36.23;;;;;;;8.33;100.00;99070.39;1767564;81;21006;-73
2021/11/28 10:34:59;;;;;;;50.63;31.87;;;;;;;8.38;100.00;99062.61;1743702;81;21559;-73
2021/11/28 10:37:26;;;;;;;57.07;35.80;;;;;;;8.42;100.00;99047.78;1768675;81;21065;-72
2021/11/28 10:39:58;;;;;;;52.00;34.07;;;;;;;8.51;100.00;99049.91;1714885;81;21129;-73
2021/11/28 10:42:33;;;;;;;54.47;33.90;;;;;;;8.59;100.00;99057.92;1768869;81;20986;-74
2021/11/28 10:45:16;;;;;;;44.73;31.43;;;;;;;8.65;100.00;99045.57;1768960;81;21511;-73
2021/11/28 10:47:55;;;;;;;45.00;30.80;;;;;;;8.69;100.00;99054.47;1768754;81;21028;-72
2021/11/28 10:50:28;;;;;;;42.00;28.83;;;;;;;8.71;100.00;99056.95;1768916;81;21018;-73
2021/11/28 10:53:15;;;;;;;41.93;27.83;;;;;;;8.69;100.00;99053.61;1768654;81;21069;-72
2021/11/28 10:55:45;;;;;;;43.13;29.20;;;;;;;8.71;100.00;99055.61;1768671;81;21065;-72
2021/11/28 10:58:20;;;;;;;43.40;29.00;;;;;;;8.73;100.00;99055.77;1768923;81;20998;-73
2021/11/28 11:00:56;;;;;;;48.00;30.90;;;;;;;8.78;100.00;99051.16;1773004;80;21485;-73
2021/11/28 11:03:29;;;;;;;44.07;27.43;;;;;;;8.78;100.00;99051.16;1787112;80;21018;-73
2021/11/28 11:06:24;;;;;;;41.43;27.87;;;;;;;8.79;100.00;99056.05;1787190;80;21042;-72
2021/11/28 11:08:55;;;;;;;40.73;26.67;;;;;;;8.77;100.00;99051.36;1764578;81;21487;-72
2021/11/28 11:11:24;;;;;;;38.80;25.90;;;;;;;8.80;100.00;99053.18;1764682;81;21006;-72
2021/11/28 11:14:00;;;;;;;41.20;28.43;;;;;;;8.89;100.00;99049.38;1764683;81;21073;-73
2021/11/28 11:16:39;;;;;;;40.63;27.83;;;;;;;8.95;100.00;99044.27;1765206;81;21439;-73
2021/11/28 11:19:35;;;;;;;41.10;26.53;;;;;;;9.02;100.00;99045.20;1759596;81;21045;-72
2021/11/28 11:22:11;;;;;;;34.97;22.67;;;;;;;9.07;100.00;99042.27;1722548;83;21050;-72
2021/11/28 11:24:42;;;;;;;38.27;25.40;;;;;;;9.18;100.00;99036.92;1666276;85;21165;-74
2021/11/28 11:27:13;;;;;;;38.98;26.05;;;;;;;9.29;100.00;99032.39;1666689;84;21109;-72
2021/11/28 11:29:43;;;;;;;42.87;28.20;;;;;;;9.40;100.00;99020.31;1666668;86;21598;-74
2021/11/28 11:32:13;;;;;;;40.23;25.57;;;;;;;9.52;100.00;99024.69;1667533;84;21049;-73
2021/11/28 11:34:50;;;;;;;43.13;27.77;;;;;;;9.62;100.00;99020.36;1701039;84;21090;-72
2021/11/28 11:37:18;;;;;;;40.73;26.17;;;;;;;9.71;100.00;99019.20;1686623;85;21030;-73
2021/11/28 11:39:47;;;;;;;40.27;25.53;;;;;;;9.79;100.00;99023.15;1686641;85;21126;-73